LKPR - Praha Ruzyně, Česká republika
Vzdálenost od této stanice: ZSZ 177km
Aktualizováno: 22.10.2017 10:00
 
Teplota vzduchu: 10°C
Chlad větru: 7°C
Vítr: JZ 24 km/h
Rosný bod: 8°C
Vlhkost vzduchu: 88%
Tlak vzduchu: 1016 hPa
Stav počasí: slabý déšť
Oblačnost: skoro zataženo
Viditelnost: 10 km
Detaily oblačnosti: skoro jasno 366 m
skoro zataženo 1433 m
2017/10/22 08:00 LKPR 220800Z 22013KT 9999 -RA FEW012 BKN047 10/08 Q1016 NOSIG
LKTB - Brno Tuřany, Česká republika
Vzdálenost od této stanice: VJV 28km
Aktualizováno: 22.10.2017 10:00
 
Teplota vzduchu: 12°C
Vítr: Z 19 km/h
Rosný bod: 11°C
Vlhkost vzduchu: 94%
Tlak vzduchu: 1015 hPa
Stav počasí: slabý déšť
Oblačnost: skoro zataženo
Viditelnost: 10 km
Detaily oblačnosti: skoro zataženo 1494 m
2017/10/22 08:00 LKTB 220800Z 26010KT 9999 -RA BKN049 12/11 Q1015 NOSIG
 
LKKV - Karlovy Vary, Česká republika
Vzdálenost od této stanice: SZ 268km
Aktualizováno: 22.10.2017 10:00
 
Teplota vzduchu: 8°C
Chlad větru: 6°C
Vítr: JZ 11 km/h
Rosný bod: 6°C
Vlhkost vzduchu: 87%
Tlak vzduchu: 1015 hPa
Oblačnost: skoro zataženo
Viditelnost: 10 km
Detaily oblačnosti: skoro jasno 488 m
skoro zataženo 945 m
2017/10/22 08:00 LKKV 220800Z 22006KT 190V250 9999 FEW016 BKN031 08/06 Q1015
LKMT - Ostrava Mošnov, Česká republika
Vzdálenost od této stanice: VSV 136km
Aktualizováno: 22.10.2017 10:00
 
Teplota vzduchu: 11°C
Vítr: JZ 13 km/h
Rosný bod: 10°C
Vlhkost vzduchu: 94%
Tlak vzduchu: 1014 hPa
Stav počasí: slabý déšť
Oblačnost: zataženo
Viditelnost: 6 km
Detaily oblačnosti: oblačno 213 m
zataženo 701 m
2017/10/22 08:00 LKMT 220800Z 22007KT 6000 -RA SCT007 OVC023 11/10 Q1014 NOSIG
 
LKPD - Pardubice, Česká republika
Vzdálenost od této stanice: SSZ 97km
Aktualizováno: 22.10.2017 10:00
 
Teplota vzduchu: 11°C
Vítr: Z 19 km/h
Rosný bod: 10°C
Vlhkost vzduchu: 94%
Tlak vzduchu: 1015 hPa
Stav počasí: slabý déšť
Oblačnost: zataženo
Viditelnost: 10 km
Detaily oblačnosti: oblačno 1341 m
zataženo 1524 m
2017/10/22 08:00 LKPD 220800Z 26010KT 9999 -RA SCT044 OVC050 11/10 Q1015 NOSIG RMK BLU BLU
LKKB - Praha Kbely, Česká republika
Vzdálenost od této stanice: SZ 162km
Aktualizováno: 22.10.2017 09:00
 
Teplota vzduchu: 10°C
Chlad větru: 7°C
Vítr: JJZ 19 km/h
Rosný bod: 9°C
Vlhkost vzduchu: 94%
Tlak vzduchu: 1016 hPa
Stav počasí: slabý déšť
Oblačnost: zataženo
Viditelnost: 10 km
Detaily oblačnosti: oblačno 1097 m
skoro zataženo 1524 m
zataženo 1829 m
2017/10/22 07:00 LKKB 220700Z 21010KT 190V260 9999 -RA SCT036 BKN050 OVC060 10/09 Q1016 NOSIG
 
LKCV - Čáslav, Česká republika
Vzdálenost od této stanice: SZ 103km
Aktualizováno: 22.10.2017 10:00
 
Teplota vzduchu: 11°C
Vítr: ZJZ 17 km/h
Rosný bod: 9°C
Vlhkost vzduchu: 88%
Tlak vzduchu: 1016 hPa
Stav počasí: slabý déšť
Oblačnost: oblačno
Viditelnost: 10 km
2017/10/22 08:00 LKCV 220800Z 25009KT 9999 -RA NSC 11/09 Q1016 NOSIG RMK BLU BLU
LKNA - Náměšť n. Osl., Česká republika
Vzdálenost od této stanice: ZJZ 19km
Aktualizováno: 22.10.2017 10:00
 
Teplota vzduchu: 9°C
Chlad větru: 6°C
Vítr: Z 28 km/h
Rosný bod: 9°C
Vlhkost vzduchu: 100%
Tlak vzduchu: 1017 hPa
Stav počasí: slabý déšť
Oblačnost: zataženo
Viditelnost: 8 km
Detaily oblačnosti: skoro zataženo 305 m
zataženo 1524 m
2017/10/22 08:00 LKNA 220800Z 28015KT 8000 -RA BKN010 OVC050 09/09 Q1017 NOSIG RMK GRN GRN
 
LKLN - Plzeň Líně, Česká republika
Vzdálenost od této stanice: Z 228km
Aktualizováno: 22.10.2017 09:00
 
Teplota vzduchu: 9°C
Chlad větru: 7°C
Vítr: JZ 11 km/h
Rosný bod: 8°C
Vlhkost vzduchu: 94%
Tlak vzduchu: 1017 hPa
Stav počasí: slabý déšť
Oblačnost: zataženo
Viditelnost: 10 km
Detaily oblačnosti: zataženo 1829 m
2017/10/22 07:00 LKLN 220700Z AUTO 22006KT 9999 -RA OVC060 09/08 Q1017
LKVO - Vodochody, Česká republika
Vzdálenost od této stanice: SZ 177km
Aktualizováno: 21.10.2017 11:00
Není aktuální
 
Teplota vzduchu: 12°C
Vítr: ZJZ 7 km/h
Rosný bod: 12°C
Vlhkost vzduchu: 100%
Tlak vzduchu: 1017 hPa
Stav počasí: Jasno
Oblačnost: jasná obloha
Viditelnost: více než 10 km
2017/10/21 09:00 LKVO 210900Z 24004KT CAVOK 12/12 Q1017